Date,TemperatureHighF,TemperatureAvgF,TemperatureLowF,DewpointHighF,DewpointAvgF,DewpointLowF,HumidityHigh,HumidityAvg,HumidityLow,PressureMaxIn,PressureMinIn,WindSpeedMaxMPH,WindSpeedAvgMPH,GustSpeedMaxMPH,PrecipitationSumIn
2012-1-1,48.0,38.2,30.0,43.0,34.2,25.0,95,86,69,29.99,29.59,21,7,38,0.08
2012-1-2,31.0,26.3,22.0,25.0,22.6,16.0,93,86,79,30.24,29.96,14,9,23,0.01
2012-1-3,25.0,21.3,19.0,19.0,15.5,12.0,87,78,71,30.37,30.20,11,4,15,0.00
2012-1-4,37.0,29.2,21.0,30.0,21.7,13.0,86,73,65,30.23,29.91,6,3,16,0.00
2012-1-5,46.0,36.0,28.0,35.0,29.9,25.0,88,79,60,30.04,29.78,5,2,11,0.00
2012-1-6,54.0,45.0,39.0,41.0,36.9,33.0,82,73,60,29.78,29.70,7,3,13,0.00
2012-1-7,45.0,38.6,30.0,37.0,32.7,26.0,89,79,65,30.22,29.71,9,4,17,0.00
2012-1-8,41.0,32.9,27.0,30.0,27.2,25.0,93,80,61,30.38,30.21,3,0,7,0.00
2012-1-9,41.0,35.6,29.0,31.0,28.4,25.0,86,75,63,30.30,29.99,5,2,13,0.00
2012-1-10,49.0,39.0,30.0,37.0,32.1,27.0,87,76,60,30.07,29.89,8,2,12,0.00
2012-1-11,43.0,35.6,31.0,39.0,29.0,-99.9,98,86,75,29.89,29.43,4,-36,9,0.24
2012-1-12,40.0,32.7,18.0,39.0,30.7,13.0,98,93,81,29.52,29.35,10,4,24,0.20
2012-1-13,20.0,18.4,17.0,17.0,15.3,13.0,92,87,82,30.05,29.48,10,6,25,0.01
2012-1-14,21.0,18.8,16.0,16.0,14.4,12.0,88,82,76,30.27,30.05,5,2,15,0.00
2012-1-15,28.0,18.9,11.0,18.0,13.6,8.0,92,80,64,30.50,30.26,4,1,8,0.00
2012-1-16,47.0,35.6,22.0,45.0,31.5,17.0,97,85,74,30.26,29.78,5,2,15,0.00
2012-1-17,53.0,43.5,28.0,51.0,41.3,23.0,98,92,80,30.08,29.45,17,8,27,0.64
2012-1-18,28.0,25.6,24.0,23.0,19.4,17.0,85,77,69,30.29,30.03,11,4,22,0.01
2012-1-19,29.0,22.3,9.0,27.0,18.1,5.0,94,84,75,30.19,29.84,14,4,21,0.00
2012-1-20,18.0,13.8,9.0,15.0,9.6,5.0,92,83,69,30.32,30.06,5,1,12,0.00
2012-1-21,25.0,17.7,14.0,17.0,12.9,-99.9,92,84,70,30.31,30.03,3,-7,8,0.09
2012-1-22,38.0,26.5,14.0,38.0,25.0,12.0,99,94,89,30.26,29.75,4,1,12,0.08
2012-1-23,49.0,40.2,33.0,47.0,38.1,28.0,99,92,82,29.90,29.49,12,5,27,0.20
2012-1-24,34.0,31.9,28.0,29.0,27.5,26.0,94,84,76,30.35,29.90,11,5,20,0.02
2012-1-25,32.0,29.4,25.0,31.0,27.3,23.0,97,92,86,30.38,30.14,2,0,6,0.00
2012-1-26,34.0,32.6,32.0,34.0,31.8,31.0,99,98,97,30.14,29.54,4,1,8,0.33
2012-1-27,41.0,35.7,33.0,36.0,32.7,30.0,99,89,69,30.00,29.54,11,5,17,0.20
2012-1-28,35.0,32.7,30.0,32.0,27.5,19.0,97,82,54,30.16,29.83,17,6,28,0.03
2012-1-29,35.0,29.4,24.0,30.0,24.3,19.0,95,81,72,30.27,29.98,19,5,29,0.01
2012-1-30,46.0,33.5,22.0,36.0,27.6,19.0,90,79,64,30.28,29.95,6,2,17,0.01
2012-1-31,57.0,48.6,41.0,49.0,40.2,33.0,89,73,60,29.99,29.86,7,4,16,0.00
2012-2-1,52.0,44.8,35.0,51.0,41.8,33.0,96,89,82,30.11,29.86,6,3,13,0.04
2012-2-2,45.0,37.2,32.0,37.0,33.2,30.0,95,86,69,30.40,30.11,6,2,10,0.01
2012-2-3,50.0,36.4,27.0,42.0,33.5,26.0,98,90,69,30.49,30.37,4,0,11,0.01
2012-2-4,36.0,34.0,32.0,34.0,32.2,31.0,98,94,88,30.37,30.16,4,1,12,0.34
2012-2-5,43.0,32.5,21.0,35.0,28.8,20.0,98,87,69,30.28,30.16,3,1,7,0.11
2012-2-6,45.0,35.1,29.0,37.0,31.8,27.0,96,88,67,30.24,30.10,10,3,17,0.01
2012-2-7,36.0,32.2,30.0,33.0,29.6,27.0,93,90,85,30.32,30.16,8,2,12,0.00
2012-2-8,37.0,30.4,27.0,28.0,24.6,21.0,92,79,57,30.34,30.26,7,2,12,0.00
2012-2-9,32.0,27.7,24.0,25.0,22.3,21.0,88,80,70,30.31,30.16,7,3,15,0.00
2012-2-10,33.0,30.5,23.0,32.0,26.9,20.0,96,86,76,30.17,29.84,14,3,21,0.00
2012-2-11,22.0,16.6,9.0,20.0,11.4,4.0,93,80,69,30.32,29.91,16,9,22,0.00
2012-2-12,30.0,22.4,15.0,20.0,15.0,9.0,78,73,65,30.29,30.22,13,6,20,0.00
2012-2-13,34.0,27.9,20.0,26.0,16.9,12.0,84,64,45,30.22,29.99,5,2,13,0.00
2012-2-14,35.0,31.8,29.0,32.0,29.6,26.0,96,91,86,30.09,29.87,4,1,9,0.09
2012-2-15,41.0,36.4,33.0,38.0,33.1,29.0,94,87,82,30.22,30.02,3,1,9,0.05
2012-2-16,43.0,39.8,35.0,42.0,37.6,32.0,98,92,81,30.12,29.93,10,2,15,0.09
2012-2-17,46.0,37.2,30.0,32.0,30.0,27.0,91,76,54,30.18,30.02,6,2,11,0.02
2012-2-18,40.0,35.0,28.0,33.0,27.6,21.0,92,75,53,30.19,30.00,11,4,17,0.00
2012-2-19,35.0,28.6,23.0,25.0,22.2,19.0,86,77,64,30.22,30.11,3,1,11,0.00
2012-2-20,40.0,29.8,20.0,28.0,23.7,18.0,93,79,56,30.38,30.11,3,1,11,0.00
2012-2-21,45.0,38.2,31.0,41.0,34.6,26.0,96,87,77,30.11,29.68,7,3,16,0.13
2012-2-22,49.0,39.8,34.0,40.0,35.9,32.0,96,86,69,29.74,29.41,6,1,10,0.02
2012-2-23,42.0,37.2,33.0,40.0,36.1,32.0,98,96,89,29.63,29.45,6,2,14,0.26
2012-2-24,42.0,35.9,31.0,39.0,33.4,25.0,98,91,82,29.86,29.32,20,8,30,0.27
2012-2-25,33.0,28.6,26.0,25.0,22.7,20.0,86,78,68,30.37,29.86,17,8,27,0.01
2012-2-26,46.0,32.9,21.0,30.0,24.1,19.0,90,71,50,30.42,30.14,5,2,12,0.00
2012-2-27,46.0,38.3,28.0,31.0,26.7,23.0,84,64,44,30.50,30.11,21,6,29,0.00
2012-2-28,47.0,34.4,22.0,33.0,26.7,20.0,93,75,49,30.50,30.04,3,1,13,0.00
2012-2-29,66.0,47.1,36.0,56.0,39.5,32.0,99,79,42,30.06,29.47,17,4,26,0.61
2012-3-1,42.0,37.6,34.0,34.0,32.4,29.0,91,82,67,29.88,29.60,11,4,24,0.09
2012-3-2,56.0,39.9,32.0,52.0,37.8,30.0,97,92,86,29.87,29.19,6,2,16,0.56
2012-3-3,36.0,33.0,30.0,28.0,26.8,25.0,89,78,67,29.81,29.63,12,6,26,0.01
2012-3-4,38.0,31.8,28.0,29.0,26.7,24.0,90,82,60,29.90,29.78,9,3,20,0.00
2012-3-5,33.0,29.0,24.0,27.0,22.5,18.0,92,77,63,30.42,29.90,8,3,15,0.00
2012-3-6,63.0,43.5,30.0,40.0,31.5,24.0,81,64,40,30.41,30.08,8,3,14,0.00
2012-3-7,69.0,56.7,47.0,49.0,39.1,31.0,64,52,39,30.17,29.94,9,5,27,0.00
2012-3-8,61.0,48.3,33.0,55.0,42.2,27.0,94,80,63,30.19,29.83,13,6,24,0.31
2012-3-9,40.0,34.1,26.0,28.0,23.7,18.0,83,66,46,30.53,30.18,13,6,23,0.10
2012-3-10,52.0,36.2,23.0,31.0,23.8,18.0,85,63,36,30.56,30.32,6,2,13,0.00
2012-3-11,67.0,51.0,34.0,39.0,31.2,-99.9,74,51,28,30.36,30.18,5,1,12,0.00
2012-3-12,65.0,56.6,49.0,58.0,50.6,37.0,96,81,56,30.18,29.80,7,3,20,0.20
2012-3-13,71.0,59.7,50.0,59.0,47.2,34.0,89,66,31,30.09,29.83,13,4,21,0.02
2012-3-14,80.0,62.3,45.0,58.0,48.5,36.0,85,63,40,30.11,29.99,4,1,13,0.00
2012-3-15,80.0,69.4,62.0,66.0,59.7,54.0,90,72,55,30.02,29.92,6,2,16,0.02
2012-3-16,78.0,66.0,55.0,61.0,57.4,53.0,95,75,53,30.09,29.99,4,1,11,0.01
2012-3-17,77.0,64.9,52.0,59.0,55.8,51.0,98,74,49,30.14,30.03,5,1,13,0.00
2012-3-18,74.0,64.6,59.0,61.0,57.5,55.0,90,79,56,30.09,29.99,6,1,11,0.01
2012-3-19,83.0,68.6,56.0,63.0,57.9,54.0,94,71,42,30.07,29.96,4,1,10,0.01
2012-3-20,85.0,71.0,59.0,60.0,55.3,-99.9,85,61,38,30.10,29.99,3,1,9,0.00
2012-3-21,89.0,73.6,62.0,59.0,55.6,53.0,77,56,31,30.13,30.00,3,0,9,0.00
2012-3-22,84.0,70.6,57.0,59.0,54.8,-99.9,93,61,39,30.10,29.99,3,-7,9,0.00
2012-3-23,69.0,63.9,59.0,64.0,59.9,56.0,96,87,67,30.01,29.79,3,1,9,0.68
2012-3-24,66.0,59.4,55.0,58.0,55.8,54.0,98,89,70,29.83,29.72,9,2,14,0.45
2012-3-25,73.0,60.2,54.0,58.0,54.6,50.0,98,83,52,30.00,29.82,6,2,13,0.01
2012-3-26,55.0,44.9,37.0,51.0,32.9,25.0,86,64,40,30.36,29.99,6,2,17,0.00
2012-3-27,60.0,44.5,31.0,39.0,28.7,23.0,78,56,33,30.36,29.92,5,2,13,0.00
2012-3-28,72.0,61.9,47.0,56.0,44.9,38.0,82,56,30,29.95,29.77,19,7,30,0.00
2012-3-29,55.0,46.2,38.0,38.0,35.6,33.0,85,67,48,30.10,29.95,5,1,12,0.00
2012-3-30,67.0,46.4,39.0,53.0,39.1,32.0,88,76,59,30.04,29.63,6,2,13,0.00
2012-3-31,44.0,41.4,39.0,39.0,37.2,36.0,95,85,76,29.97,29.83,3,1,10,0.00
2012-4-1,72.0,53.4,39.0,57.0,46.2,36.0,92,78,58,29.93,29.64,7,2,14,0.00
2012-4-2,62.0,49.8,41.0,48.0,39.6,36.0,88,70,43,30.00,29.76,6,3,15,0.00
2012-4-3,76.0,55.2,41.0,56.0,43.5,33.0,82,66,45,29.98,29.74,5,1,11,0.00
2012-4-4,65.0,55.8,48.0,50.0,40.4,33.0,90,60,31,29.91,29.80,4,1,13,0.00
2012-4-5,54.0,45.6,38.0,36.0,33.3,30.0,79,63,44,30.10,29.86,6,2,16,0.00
2012-4-6,60.0,44.6,31.0,32.0,29.1,26.0,83,58,30,30.27,30.09,4,1,14,0.00
2012-4-7,67.0,50.7,31.0,31.0,25.0,14.0,81,42,13,30.33,30.12,4,1,8,0.00
2012-4-8,62.0,54.5,49.0,46.0,33.5,21.0,87,50,21,30.15,30.05,13,5,31,0.01
2012-4-9,62.0,53.1,44.0,41.0,32.8,19.0,76,50,19,30.07,29.85,19,6,29,0.01
2012-4-10,43.0,38.4,33.0,28.0,25.4,23.0,71,60,49,30.08,29.89,11,6,20,0.01
2012-4-11,54.0,42.3,30.0,32.0,28.3,23.0,79,60,38,30.23,30.06,7,3,12,0.00
2012-4-12,60.0,45.8,33.0,33.0,29.9,27.0,82,58,32,30.28,30.13,5,2,12,0.00
2012-4-13,66.0,53.5,36.0,35.0,30.3,27.0,81,45,23,30.24,30.09,4,1,13,0.00
2012-4-14,64.0,56.9,53.0,57.0,47.6,33.0,96,73,40,30.09,29.89,4,1,12,0.14
2012-4-15,80.0,67.3,58.0,61.0,56.4,-99.9,97,72,44,29.91,29.76,8,4,21,0.04
2012-4-16,70.0,63.1,50.0,61.0,52.7,41.0,93,69,56,30.15,29.66,10,6,28,0.09
2012-4-17,62.0,51.4,41.0,42.0,39.7,37.0,89,66,45,30.34,30.15,6,1,17,0.01
2012-4-18,69.0,54.6,37.0,41.0,36.5,33.0,90,55,28,30.29,30.00,4,1,9,0.00
2012-4-19,78.0,65.3,56.0,48.0,43.5,36.0,59,46,29,30.00,29.82,6,2,13,0.00
2012-4-20,74.0,60.3,44.0,55.0,47.7,42.0,96,66,42,29.83,29.65,13,5,21,0.36
2012-4-21,54.0,45.5,40.0,42.0,38.3,35.0,93,77,53,29.97,29.83,4,2,15,0.33
2012-4-22,54.0,44.6,36.0,40.0,30.7,-99.9,86,63,34,29.98,29.91,4,2,14,0.00
2012-4-23,59.0,45.3,35.0,28.0,23.7,16.0,69,46,20,29.95,29.69,15,8,25,0.00
2012-4-24,63.0,48.9,35.0,30.0,25.6,22.0,73,43,23,29.72,29.64,16,6,23,0.00
2012-4-25,61.0,51.7,40.0,52.0,40.4,26.0,91,67,49,29.79,29.68,3,1,10,0.12
2012-4-26,61.0,52.7,42.0,55.0,46.6,35.0,97,81,56,30.04,29.59,9,4,19,0.18
2012-4-27,56.0,44.3,31.0,35.0,28.6,25.0,85,57,32,30.26,30.06,5,1,11,0.03
2012-4-28,48.0,44.0,40.0,41.0,36.9,30.0,87,76,50,30.22,30.09,5,2,16,0.28
2012-4-29,65.0,49.4,35.0,42.0,33.6,-99.9,89,60,30,30.29,30.14,5,2,16,0.02
2012-4-30,81.0,60.4,48.0,62.0,47.8,27.0,98,66,37,30.15,29.82,7,2,14,0.38
2012-5-1,66.0,60.4,55.0,61.0,57.1,53.0,98,89,73,30.03,29.87,4,1,13,0.42
2012-5-2,83.0,70.4,56.0,70.0,63.7,55.0,99,82,60,29.94,29.84,9,2,22,0.23
2012-5-3,87.0,76.8,67.0,67.0,64.6,62.0,89,68,45,29.98,29.83,7,3,17,0.00
2012-5-4,83.0,72.8,63.0,69.0,64.4,59.0,91,76,53,29.93,29.80,5,1,13,0.04
2012-5-5,73.0,65.7,59.0,65.0,58.5,54.0,92,78,61,30.02,29.86,6,2,15,0.04
2012-5-6,79.0,63.6,51.0,54.0,45.2,-99.9,85,56,33,30.06,29.88,4,1,13,0.00
2012-5-7,74.0,62.8,53.0,65.0,53.8,34.0,95,74,38,29.92,29.74,5,1,12,0.17
2012-5-8,72.0,60.9,51.0,62.0,52.8,46.0,94,77,43,29.84,29.75,10,3,17,0.01
2012-5-9,65.0,57.7,48.0,52.0,47.0,41.0,84,68,50,29.85,29.76,10,4,16,0.13
2012-5-10,69.0,54.8,41.0,42.0,36.7,28.0,89,56,26,30.01,29.85,5,2,12,0.01
2012-5-11,76.0,61.4,43.0,43.0,37.3,29.0,86,47,19,30.15,30.01,3,1,10,0.00
2012-5-12,78.0,66.5,56.0,56.0,44.9,39.0,76,47,33,30.20,30.11,5,1,10,0.00
2012-5-13,78.0,64.8,55.0,58.0,53.4,-99.9,97,71,42,30.14,30.03,5,2,12,0.00
2012-5-14,80.0,66.9,51.0,55.0,50.5,44.0,93,60,31,30.06,29.94,3,1,9,0.00
2012-5-15,84.0,69.9,51.0,49.0,42.2,38.0,75,41,20,29.98,29.82,6,2,16,0.00
2012-5-16,73.0,65.6,57.0,53.0,38.8,31.0,76,39,22,30.06,29.81,5,2,12,0.00
2012-5-17,74.0,60.0,46.0,42.0,37.5,33.0,79,47,25,30.18,30.06,5,1,15,0.00
2012-5-18,84.0,66.2,46.0,42.0,37.5,33.0,71,39,17,30.12,29.99,4,1,11,0.00
2012-5-19,90.0,73.4,51.0,51.0,47.1,42.0,81,44,21,30.09,30.00,4,1,14,0.00
2012-5-20,92.0,77.7,61.0,58.0,51.5,-99.9,74,44,24,30.09,29.93,4,1,10,0.00
2012-5-21,75.0,68.6,60.0,62.0,56.9,52.0,80,67,45,29.98,29.91,8,3,14,0.00
2012-5-22,78.0,65.5,56.0,53.0,49.6,46.0,84,59,35,29.97,29.84,4,2,9,0.00
2012-5-23,84.0,69.4,50.0,57.0,52.9,45.0,86,58,38,29.91,29.77,4,1,10,0.00
2012-5-24,88.0,75.1,61.0,63.0,57.2,52.0,84,57,34,29.87,29.70,8,2,14,0.00
2012-5-25,92.0,80.9,71.0,67.0,59.5,49.0,66,50,32,30.01,29.77,8,3,19,0.00
2012-5-26,92.0,76.9,68.0,64.0,54.9,49.0,59,47,35,30.13,29.99,5,2,16,0.00
2012-5-27,97.0,80.7,66.0,67.0,59.1,-99.9,70,52,30,30.06,29.87,5,2,11,0.00
2012-5-28,95.0,84.7,73.0,68.0,64.3,61.0,79,53,34,29.88,29.70,7,3,15,0.00
2012-5-29,85.0,77.9,67.0,68.0,59.2,45.0,92,57,25,29.80,29.67,8,3,19,0.06
2012-5-30,80.0,68.3,56.0,52.0,45.4,41.0,69,46,27,29.85,29.75,8,3,20,0.03
2012-5-31,73.0,60.0,50.0,54.0,49.9,44.0,92,71,49,29.92,29.74,9,2,18,0.12
2012-6-1,56.0,53.2,49.0,53.0,50.8,45.0,97,92,81,29.75,29.56,13,5,21,0.15
2012-6-2,75.0,59.7,47.0,54.0,46.9,42.0,93,66,33,29.78,29.70,9,4,26,0.04
2012-6-3,81.0,67.6,54.0,57.0,47.1,-99.9,90,55,23,29.79,29.74,13,5,21,0.04
2012-6-4,80.0,68.7,57.0,53.0,48.3,43.0,77,50,28,29.84,29.72,5,1,11,0.00
2012-6-5,70.0,61.1,50.0,53.0,49.3,46.0,90,67,44,29.97,29.84,7,2,14,0.00
2012-6-6,80.0,65.0,47.0,51.0,46.0,43.0,91,55,29,30.03,29.96,4,1,12,0.00
2012-6-7,84.0,70.5,55.0,54.0,48.4,45.0,80,49,26,30.06,29.97,5,1,11,0.00
2012-6-8,87.0,73.2,56.0,49.0,45.2,40.0,71,41,20,30.05,29.89,7,2,15,0.00
2012-6-9,90.0,78.5,65.0,53.0,49.4,45.0,56,38,24,29.95,29.85,7,2,17,0.00
2012-6-10,94.0,80.1,65.0,60.0,53.8,-99.9,67,44,24,29.98,29.90,4,1,13,0.00
2012-6-11,84.0,76.4,68.0,69.0,64.8,56.0,94,69,48,29.91,29.78,6,2,15,0.02
2012-6-12,82.0,73.5,60.0,69.0,54.6,41.0,87,56,23,30.03,29.78,12,5,22,0.02
2012-6-13,80.0,66.1,54.0,48.0,41.7,30.0,76,46,17,30.16,30.03,3,1,11,0.00
2012-6-14,87.0,70.1,52.0,55.0,45.6,37.0,85,48,17,30.16,30.04,3,1,11,0.00
2012-6-15,93.0,76.8,57.0,60.0,51.6,46.0,81,46,20,30.11,30.03,4,1,10,0.00
2012-6-16,95.0,81.1,69.0,67.0,62.9,60.0,74,56,32,30.09,29.88,4,1,12,0.00
2012-6-17,86.0,77.0,71.0,69.0,63.3,-99.9,86,65,48,29.90,29.77,11,2,20,0.00
2012-6-18,94.0,80.5,65.0,70.0,63.9,57.0,86,60,38,29.85,29.73,7,2,21,0.00
2012-6-19,95.0,84.1,73.0,69.0,64.3,61.0,72,53,36,29.99,29.85,7,3,17,0.00
2012-6-20,95.0,84.4,73.0,65.0,61.4,58.0,73,49,30,30.06,29.89,6,2,16,0.00
2012-6-21,94.0,80.8,69.0,69.0,64.1,60.0,95,60,32,29.93,29.75,10,3,21,0.39
2012-6-22,86.0,73.4,62.0,67.0,59.0,47.0,96,66,29,29.93,29.86,7,2,11,0.39
2012-6-23,86.0,74.7,59.0,61.0,55.7,53.0,85,55,32,30.00,29.93,4,1,8,0.00
2012-6-24,91.0,80.2,69.0,61.0,57.8,54.0,70,49,29,29.97,29.82,6,2,13,0.00
2012-6-25,81.0,74.3,65.0,62.0,53.1,42.0,79,50,29,29.98,29.84,6,2,15,0.00
2012-6-26,84.0,70.5,54.0,51.0,45.9,41.0,79,46,23,30.04,29.90,5,1,11,0.00
2012-6-27,91.0,76.7,63.0,51.0,48.2,44.0,59,39,20,30.00,29.80,5,2,13,0.00
2012-6-28,107.0,87.7,74.0,74.0,63.0,50.0,63,45,28,29.83,29.64,13,4,28,0.00
2012-6-29,92.0,84.2,77.0,75.0,71.8,70.0,80,67,55,29.82,29.68,6,2,10,0.00
2012-6-30,75.0,73.8,72.0,70.0,69.3,68.0,88,86,85,29.78,29.78,4,4,7,0.56
2012-7-2,95.0,86.6,70.0,72.0,68.2,65.0,89,56,42,29.98,29.88,4,2,10,0.00
2012-7-3,96.0,76.4,76.0,68.0,38.3,-99.9,74,40,34,29.90,29.78,6,-145,16,0.00
2012-7-5,100.0,81.1,81.0,74.0,45.9,-99.9,78,42,36,29.90,29.80,7,-128,13,0.00
2012-7-6,104.0,91.0,79.0,77.0,68.0,-99.9,80,52,37,29.90,29.82,3,-33,8,0.00
2012-7-7,102.0,90.9,80.0,77.0,72.5,67.0,84,58,34,29.88,29.80,8,2,15,0.00
2012-7-8,89.0,79.7,74.0,73.0,62.8,55.0,83,59,39,29.97,29.85,5,1,11,0.01
2012-7-9,90.0,78.3,63.0,63.0,60.1,56.0,87,57,35,30.01,29.91,4,1,14,0.01
2012-7-10,88.0,76.4,63.0,66.0,60.3,54.0,90,61,37,30.04,29.94,5,1,13,0.00
2012-7-11,91.0,77.2,62.0,59.0,51.0,42.0,81,45,19,30.10,30.03,3,1,10,0.00
2012-7-12,94.0,79.3,62.0,62.0,53.7,50.0,72,45,24,30.09,29.99,5,1,12,0.00
2012-7-13,90.0,80.1,68.0,69.0,63.3,60.0,82,58,38,30.07,29.97,4,1,12,0.00
2012-7-14,93.0,77.8,67.0,71.0,66.6,62.0,94,71,39,30.06,29.93,4,1,13,0.05
2012-7-15,93.0,80.7,72.0,72.0,69.6,65.0,95,72,40,30.03,29.90,9,2,18,0.05
2012-7-16,98.0,83.9,68.0,71.0,66.0,60.0,87,60,29,29.97,29.81,6,1,12,0.00
2012-7-17,100.0,85.3,75.0,78.0,70.5,67.0,86,63,37,29.83,29.73,14,2,27,0.14
2012-7-18,94.0,79.3,72.0,76.0,72.1,68.0,92,80,48,29.90,29.79,5,1,20,0.26
2012-7-19,84.0,75.2,70.0,75.0,71.9,69.0,98,90,73,29.93,29.79,7,1,14,1.53
2012-7-20,82.0,71.4,63.0,71.0,63.0,57.0,96,77,47,30.01,29.83,7,2,14,0.31
2012-7-21,86.0,73.1,59.0,67.0,61.9,58.0,97,71,43,30.08,29.99,3,1,8,0.01
2012-7-22,91.0,79.9,69.0,71.0,66.4,63.0,83,65,44,30.08,29.99,4,1,11,0.01
2012-7-23,95.0,81.4,70.0,77.0,70.6,66.0,92,71,53,30.02,29.81,7,2,15,0.28
2012-7-24,82.0,76.7,70.0,74.0,71.4,68.0,96,84,69,29.95,29.80,7,2,13,0.64
2012-7-25,91.0,77.8,65.0,79.0,68.4,60.0,89,74,55,29.92,29.60,4,2,11,0.01
2012-7-26,88.0,81.7,74.0,75.0,72.1,70.0,90,73,56,29.70,29.57,10,3,21,0.00
2012-7-27,89.0,76.9,68.0,72.0,67.9,64.0,95,76,44,29.83,29.66,10,1,18,0.01
2012-7-28,85.0,73.2,64.0,66.0,63.9,61.0,96,75,46,30.03,29.83,4,2,11,0.01
2012-7-29,88.0,74.9,61.0,67.0,60.7,58.0,92,65,37,30.07,29.95,3,1,10,0.00
2012-7-30,90.0,78.3,68.0,68.0,64.8,61.0,86,66,43,29.97,29.86,3,1,8,0.00
2012-7-31,87.0,77.0,66.0,71.0,66.0,60.0,93,70,55,29.93,29.79,7,2,15,0.11
2012-8-1,87.0,75.8,63.0,67.0,61.3,50.0,96,65,30,29.89,29.83,5,1,9,0.02
2012-8-2,92.0,76.7,62.0,64.0,58.9,55.0,85,58,30,29.88,29.79,3,0,8,0.00
2012-8-3,96.0,82.2,69.0,70.0,64.8,61.0,83,59,33,29.87,29.80,4,1,10,0.00
2012-8-4,91.0,77.2,69.0,77.0,71.0,67.0,97,82,61,29.91,29.78,10,2,21,1.30
2012-8-5,83.0,75.5,65.0,73.0,67.9,56.0,98,79,52,30.08,29.83,9,3,16,1.46
2012-8-6,83.0,70.0,55.0,62.0,58.0,53.0,94,68,43,30.14,29.99,3,1,8,0.10
2012-8-7,88.0,74.4,58.0,67.0,60.6,55.0,89,65,40,29.99,29.87,4,1,11,0.00
2012-8-8,91.0,79.0,68.0,71.0,66.4,62.0,83,67,48,29.90,29.85,3,1,7,0.00
2012-8-9,78.0,71.5,65.0,71.0,67.4,62.0,97,87,62,29.89,29.70,5,1,12,1.63
2012-8-10,68.0,62.6,57.0,64.0,60.1,55.0,98,92,80,29.78,29.65,13,6,22,1.40
2012-8-11,78.0,65.8,58.0,63.0,58.2,-99.9,95,79,56,29.93,29.78,12,6,19,0.02
2012-8-12,78.0,67.9,57.0,61.0,58.5,55.0,95,74,49,30.00,29.93,6,2,10,0.00
2012-8-13,77.0,69.2,65.0,66.0,62.5,60.0,94,80,63,29.96,29.86,2,0,6,0.13
2012-8-14,77.0,68.0,63.0,66.0,63.5,61.0,98,87,62,29.88,29.82,4,1,9,0.63
2012-8-15,83.0,69.4,60.0,68.0,63.0,59.0,96,81,55,29.94,29.88,4,1,10,0.03
2012-8-16,79.0,69.8,65.0,66.0,63.5,60.0,91,81,60,29.93,29.75,5,2,14,0.04
2012-8-17,77.0,68.3,59.0,65.0,60.3,54.0,98,77,51,29.94,29.81,6,3,15,0.04
2012-8-18,78.0,63.7,50.0,54.0,51.3,48.0,95,68,37,30.00,29.90,3,1,8,0.01
2012-8-19,80.0,67.5,56.0,59.0,52.1,47.0,89,61,32,29.92,29.84,3,1,9,0.00
2012-8-20,79.0,64.4,53.0,63.0,55.5,50.0,93,75,45,29.95,29.88,6,1,21,0.28
2012-8-21,80.0,67.9,59.0,61.0,56.6,53.0,92,70,41,30.06,29.95,4,1,9,0.02
2012-8-22,83.0,69.0,54.0,61.0,54.7,51.0,93,64,38,30.12,30.03,4,1,9,0.00
2012-8-23,87.0,66.3,56.0,63.0,40.5,-99.9,91,53,34,30.11,30.03,3,-106,8,0.00
2012-8-24,89.0,79.4,66.0,65.0,61.6,58.0,78,56,38,30.07,29.98,2,1,7,0.00
2012-8-25,93.0,78.3,65.0,68.0,62.7,58.0,80,61,34,30.06,29.99,3,1,9,0.00
2012-8-26,90.0,77.9,65.0,70.0,65.0,60.0,83,66,45,30.06,29.94,4,1,9,0.00
2012-8-27,83.0,74.7,67.0,74.0,69.6,62.0,98,85,63,29.97,29.90,7,2,13,0.80
2012-8-28,83.0,71.1,59.0,64.0,61.1,57.0,94,73,48,30.07,29.97,5,1,10,0.06
2012-8-29,83.0,70.5,59.0,66.0,60.1,57.0,95,72,45,30.07,29.98,2,0,5,0.00
2012-8-30,86.0,72.4,58.0,65.0,60.0,55.0,90,67,42,30.08,29.97,4,1,10,0.00
2012-8-31,92.0,77.3,63.0,74.0,67.3,56.0,86,72,53,30.06,29.97,5,2,14,0.00
2012-9-1,80.0,76.3,72.0,77.0,73.3,70.0,96,91,85,30.03,29.93,3,0,7,0.09
2012-9-2,83.0,75.7,71.0,75.0,72.2,70.0,99,90,75,29.95,29.83,5,2,12,0.41
2012-9-3,87.0,77.6,70.0,75.0,71.6,68.0,96,83,61,29.86,29.80,4,1,11,0.02
2012-9-4,87.0,76.4,69.0,75.0,70.8,68.0,99,84,58,29.85,29.77,5,1,9,0.02
2012-9-5,81.0,72.2,65.0,73.0,69.3,64.0,99,91,74,29.84,29.75,4,0,13,0.46
2012-9-6,86.0,73.8,64.0,72.0,66.4,61.0,98,80,50,29.88,29.80,5,1,12,0.01
2012-9-7,79.0,69.8,62.0,72.0,64.5,59.0,96,84,65,29.86,29.65,10,1,22,1.12
2012-9-8,72.0,62.9,55.0,65.0,56.2,52.0,98,81,52,29.85,29.60,9,4,17,1.13
2012-9-9,73.0,62.5,54.0,58.0,54.7,52.0,97,77,50,30.06,29.83,4,1,7,0.02
2012-9-10,76.0,63.3,52.0,55.0,48.6,43.0,94,64,31,30.21,30.06,3,0,9,0.01
2012-9-11,81.0,66.9,53.0,56.0,52.3,47.0,86,62,37,30.21,30.11,4,1,10,0.00
2012-9-12,85.0,70.4,56.0,61.0,56.1,50.0,82,62,41,30.21,30.12,5,1,12,0.00
2012-9-13,84.0,73.3,66.0,62.0,58.9,54.0,81,63,37,30.22,30.13,5,1,12,0.00
2012-9-14,73.0,62.6,54.0,62.0,54.6,47.0,96,77,40,30.27,30.16,5,1,9,0.16
2012-9-15,76.0,61.7,49.0,51.0,48.1,46.0,91,64,36,30.30,30.14,3,0,7,0.02
2012-9-16,79.0,65.0,50.0,53.0,48.3,44.0,88,58,30,30.14,29.98,3,1,9,0.00
2012-9-17,78.0,64.9,53.0,64.0,54.8,47.0,97,72,49,29.99,29.70,3,1,12,0.64
2012-9-18,65.0,59.5,47.0,64.0,52.5,39.0,98,79,55,29.97,29.58,12,5,18,0.66
2012-9-19,69.0,55.7,43.0,45.0,40.4,38.0,87,60,33,30.11,29.98,4,1,13,0.01
2012-9-20,75.0,62.5,53.0,53.0,47.3,41.0,70,58,43,29.98,29.82,6,2,14,0.00
2012-9-21,73.0,57.4,49.0,53.0,45.3,39.0,95,67,29,29.93,29.73,5,1,14,0.55
2012-9-22,57.0,50.6,46.0,53.0,48.0,43.0,99,91,76,30.11,29.73,10,2,20,0.68
2012-9-23,61.0,49.3,40.0,46.0,39.9,-99.9,95,75,44,30.24,30.11,9,3,16,0.03
2012-9-24,67.0,52.1,39.0,41.0,36.8,33.0,90,61,29,30.24,29.98,5,2,14,0.00
2012-9-25,67.0,58.0,49.0,60.0,50.1,39.0,94,76,58,29.98,29.87,4,1,10,0.02
2012-9-26,69.0,64.5,60.0,65.0,62.3,59.0,97,92,86,30.05,29.87,4,1,11,0.06
2012-9-27,71.0,61.2,55.0,59.0,54.2,50.0,98,79,53,30.13,30.06,3,1,12,0.05
2012-9-28,68.0,57.7,50.0,54.0,50.3,48.0,95,78,52,30.12,30.04,2,0,10,0.00
2012-9-29,73.0,58.1,47.0,51.0,46.4,41.0,96,70,33,30.07,29.91,7,2,14,0.00
2012-9-30,68.0,56.2,44.0,52.0,45.5,42.0,96,70,42,29.93,29.86,4,1,12,0.00
2012-10-1,68.0,55.5,44.0,54.0,47.1,42.0,94,75,48,29.93,29.77,3,1,13,0.05
2012-10-2,62.0,57.0,54.0,60.0,55.7,52.0,98,95,92,29.87,29.74,5,1,10,0.40
2012-10-3,65.0,61.1,58.0,60.0,57.2,54.0,99,88,71,30.04,29.86,3,1,11,0.13
2012-10-4,78.0,65.4,55.0,58.0,54.3,51.0,87,69,45,30.11,30.01,5,2,14,0.01
2012-10-5,66.0,52.1,42.0,59.0,49.8,41.0,97,92,75,30.08,29.99,8,2,14,0.70
2012-10-6,53.0,43.7,36.0,41.0,37.5,34.0,97,80,57,30.14,30.00,9,4,18,0.47
2012-10-7,53.0,44.3,40.0,39.0,37.5,34.0,90,77,50,30.17,30.10,6,1,13,0.00
2012-10-8,57.0,45.8,34.0,38.0,32.5,29.0,87,63,36,30.23,30.10,3,1,10,0.00
2012-10-9,63.0,49.0,37.0,41.0,37.2,32.0,91,67,40,30.13,29.88,5,1,13,0.00
2012-10-10,52.0,46.6,39.0,45.0,37.4,30.0,93,71,47,30.19,29.84,12,4,21,0.02
2012-10-11,61.0,47.8,35.0,38.0,33.2,30.0,83,60,36,30.24,30.10,7,2,17,0.01
2012-10-12,55.0,48.5,41.0,40.0,32.8,26.0,79,56,33,30.42,30.13,4,1,12,0.00
2012-10-13,65.0,50.0,36.0,61.0,44.3,31.0,95,81,62,30.36,29.91,4,1,13,0.19
2012-10-14,73.0,65.8,53.0,63.0,59.8,49.0,94,82,57,29.91,29.49,9,4,26,0.09
2012-10-15,53.0,50.1,42.0,49.0,45.9,38.0,95,86,76,29.95,29.65,9,4,19,0.09
2012-10-16,64.0,49.0,35.0,45.0,40.6,34.0,98,76,47,29.99,29.73,4,1,9,0.00
2012-10-17,75.0,61.6,54.0,56.0,50.4,45.0,93,69,41,29.73,29.45,8,3,19,0.28
2012-10-18,61.0,55.5,49.0,55.0,45.6,38.0,94,71,45,29.62,29.35,7,3,18,0.55
2012-10-19,53.0,47.9,46.0,46.0,43.3,40.0,95,84,71,29.61,29.52,5,1,12,0.15
2012-10-20,56.0,49.2,44.0,46.0,44.0,42.0,94,83,65,29.93,29.61,7,3,17,0.08
2012-10-21,65.0,51.5,39.0,50.0,44.4,37.0,96,78,56,30.11,29.93,4,1,9,0.00
2012-10-22,74.0,60.1,48.0,62.0,53.2,45.0,92,79,58,30.06,29.92,4,1,16,0.07
2012-10-23,66.0,62.6,60.0,62.0,58.0,55.0,95,85,77,29.98,29.90,5,2,14,0.15
2012-10-24,79.0,67.0,60.0,63.0,58.4,54.0,95,75,58,30.01,29.93,4,1,11,0.02
2012-10-25,77.0,66.0,55.0,60.0,55.6,52.0,89,71,48,29.96,29.82,6,2,16,0.00
2012-10-26,67.0,50.4,45.0,58.0,43.3,37.0,92,77,63,30.20,29.83,14,4,20,0.02
2012-10-27,56.0,45.5,37.0,38.0,34.9,32.0,88,68,44,30.21,30.11,5,2,13,0.01
2012-10-28,51.0,42.4,37.0,38.0,33.4,30.0,84,71,54,30.18,30.09,5,2,15,0.00
2012-10-29,45.0,41.8,38.0,32.0,27.3,22.0,73,57,40,30.12,29.78,14,8,25,0.00
2012-10-30,42.0,38.6,36.0,38.0,33.9,26.0,93,84,52,29.78,29.52,15,11,27,0.34
2012-10-31,44.0,39.6,37.0,39.0,37.2,35.0,96,91,82,29.76,29.59,11,8,19,0.12
2012-11-1,52.0,42.3,34.0,39.0,35.6,31.0,95,78,52,29.83,29.74,12,6,20,0.03
2012-11-2,48.0,40.8,33.0,36.0,32.9,30.0,91,74,58,30.09,29.83,9,4,16,0.00
2012-11-3,44.0,38.8,31.0,36.0,33.0,29.0,94,80,64,30.19,30.09,3,1,6,0.00
2012-11-4,42.0,35.3,28.0,32.0,30.0,26.0,94,81,62,30.21,30.16,2,0,9,0.00
2012-11-5,46.0,34.6,23.0,32.0,28.0,22.0,94,78,58,30.22,30.14,2,0,9,0.00
2012-11-6,48.0,36.5,27.0,34.0,29.9,25.0,93,78,57,30.15,29.94,2,0,8,0.00
2012-11-7,51.0,39.6,32.0,39.0,33.5,29.0,97,80,55,30.14,29.93,4,1,11,0.00
2012-11-8,53.0,38.3,27.0,39.0,32.4,26.0,97,81,52,30.23,30.14,4,0,9,0.01
2012-11-9,60.0,44.8,31.0,46.0,38.1,29.0,95,79,54,30.20,30.05,4,1,12,0.05
2012-11-10,69.0,58.2,49.0,53.0,47.0,43.0,86,67,54,30.11,30.01,6,2,14,0.05
2012-11-11,69.0,58.2,46.0,51.0,45.1,40.0,85,63,48,30.12,29.93,9,3,20,0.00
2012-11-12,61.0,43.3,33.0,54.0,38.6,27.0,97,84,59,30.32,29.90,9,4,17,0.56
2012-11-13,39.0,33.9,29.0,30.0,26.1,23.0,87,73,58,30.54,30.31,6,1,13,0.02
2012-11-14,42.0,32.6,25.0,31.0,26.0,-99.9,91,79,63,30.58,30.43,1,0,7,0.00
2012-11-15,46.0,34.2,25.0,35.0,29.8,24.0,96,84,65,30.43,30.34,2,0,11,0.00
2012-11-16,52.0,36.8,26.0,37.0,30.5,25.0,96,80,47,30.51,30.38,1,0,9,0.01
2012-11-17,55.0,39.9,27.0,38.0,32.4,26.0,96,76,49,30.60,30.50,2,0,7,0.01
2012-11-18,56.0,41.4,29.0,39.0,34.2,27.0,97,78,47,30.51,30.40,2,0,7,0.00
2012-11-19,58.0,43.7,30.0,39.0,34.3,27.0,95,72,45,30.40,30.16,0,0,6,0.00
2012-11-20,58.0,49.2,42.0,45.0,41.1,37.0,84,74,55,30.16,30.05,1,0,6,0.00
2012-11-21,61.0,45.4,35.0,47.0,40.6,34.0,98,85,60,30.24,30.13,4,0,8,0.00
2012-11-22,63.0,49.5,37.0,47.0,42.1,36.0,97,78,52,30.18,29.85,6,2,15,0.00
2012-11-23,55.0,38.7,30.0,51.0,32.9,23.0,95,80,65,30.11,29.80,14,7,24,0.09
2012-11-24,32.0,30.0,29.0,27.0,24.5,22.0,86,80,76,30.19,30.09,8,3,15,0.01
2012-11-25,44.0,33.9,28.0,30.0,26.2,22.0,84,74,56,30.10,29.87,6,2,14,0.00
2012-11-26,41.0,34.1,28.0,32.0,28.5,25.0,90,80,66,30.30,30.03,6,1,10,0.00
2012-11-27,39.0,31.6,27.0,29.0,24.3,21.0,95,75,52,30.39,30.28,5,1,13,0.01
2012-11-28,43.0,32.6,26.0,30.0,25.0,21.0,86,74,58,30.37,30.27,7,2,13,0.01
2012-11-29,49.0,37.9,29.0,32.0,28.9,25.0,83,71,51,30.35,30.20,7,1,13,0.00
2012-11-30,53.0,42.7,33.0,37.0,33.2,28.0,84,70,52,30.20,30.09,3,0,8,0.00
2012-12-1,60.0,45.9,32.0,52.0,41.5,31.0,99,85,71,30.22,30.03,5,2,13,0.00
2012-12-2,58.0,55.5,52.0,56.0,52.6,48.0,97,90,78,30.08,29.94,5,2,13,0.17
2012-12-3,63.0,58.2,53.0,61.0,56.7,52.0,100,95,86,30.09,29.94,6,1,14,0.01
2012-12-4,60.0,51.5,42.0,56.0,48.1,38.0,95,88,81,30.15,29.92,9,2,14,0.11
2012-12-5,42.0,34.9,29.0,38.0,29.0,24.0,91,79,64,30.41,30.15,6,2,11,0.01
2012-12-6,42.0,32.9,26.0,37.0,27.3,-99.9,88,84,79,30.34,29.97,3,0,9,0.00
2012-12-7,47.0,43.0,39.0,45.0,41.2,36.0,98,94,86,29.97,29.83,2,0,8,0.11
2012-12-8,46.0,41.9,35.0,45.0,40.9,33.0,99,96,92,30.11,29.80,7,2,11,0.18
2012-12-9,42.0,38.4,35.0,42.0,37.3,33.0,99,96,93,30.11,29.66,4,2,13,0.03
2012-12-10,45.0,36.7,33.0,45.0,35.2,31.0,99,94,89,29.89,29.66,10,4,16,0.03
2012-12-11,34.0,31.5,28.0,33.0,27.7,25.0,97,86,70,30.22,29.89,5,2,12,0.07
2012-12-12,42.0,32.5,25.0,30.0,26.7,22.0,91,80,58,30.40,30.21,3,1,10,0.08
2012-12-13,45.0,34.7,28.0,32.0,28.0,24.0,88,77,57,30.40,30.19,4,1,11,0.01
2012-12-14,49.0,37.9,31.0,36.0,30.7,26.0,86,76,55,30.27,30.15,2,0,7,0.01
2012-12-15,49.0,41.9,36.0,47.0,37.6,31.0,93,85,78,30.15,29.68,6,1,12,0.04
2012-12-16,54.0,50.3,42.0,51.0,47.5,39.0,93,90,81,29.71,29.59,8,3,15,0.01
2012-12-17,43.0,40.5,37.0,39.0,37.4,35.0,95,89,83,29.73,29.60,5,0,11,0.04
2012-12-18,40.0,37.3,33.0,36.0,34.7,31.0,96,90,80,29.82,29.65,6,2,11,0.05
2012-12-19,45.0,39.9,37.0,38.0,36.6,35.0,95,88,74,30.08,29.70,7,2,11,0.00
2012-12-20,50.0,41.2,32.0,48.0,38.9,31.0,98,91,77,29.99,29.15,10,5,23,0.28
2012-12-21,35.0,33.9,32.0,34.0,31.6,28.0,97,91,79,30.00,29.18,20,12,31,0.17
2012-12-22,34.0,30.0,24.0,29.0,25.6,21.0,89,84,76,30.17,30.00,13,5,20,0.09
2012-12-23,38.0,28.5,22.0,32.0,25.0,20.0,91,87,76,30.05,29.93,3,0,8,0.06
2012-12-24,32.0,29.7,26.0,31.0,27.5,23.0,97,92,87,30.02,29.79,4,1,10,0.01
2012-12-25,34.0,30.8,28.0,29.0,27.4,25.0,95,87,78,30.27,30.01,5,2,12,0.01
2012-12-26,31.0,29.2,26.0,28.0,26.7,24.0,97,91,83,30.19,29.75,9,5,24,0.00
2012-12-27,30.0,27.0,24.0,27.0,24.2,21.0,93,89,86,30.18,29.92,8,3,17,0.00
2012-12-28,31.0,26.6,21.0,28.0,24.8,20.0,96,92,87,30.19,29.90,2,0,7,0.00
2012-12-29,30.0,28.0,25.0,29.0,26.6,23.0,97,95,91,30.14,29.81,8,2,12,0.00
2012-12-30,27.0,22.9,20.0,25.0,19.4,16.0,93,86,77,30.40,30.14,6,3,15,0.03
2012-12-31,34.0,29.8,23.0,31.0,26.8,19.0,96,88,79,30.27,30.02,6,3,16,0.02
2013-1-1,31.0,25.8,16.0,30.0,21.2,13.0,95,83,64,30.16,30.03,3,1,7,0.06